Thursday, October 19, 2017, 7:08 AM EDT
Back to Local

KBLM, Belmar-farmingdale

Location: Farmingdale, NJ, United States Lat: 40.183
Local Time: 7:08 AM EDT (11:08 GMT) Lon: -74.133
Time Zone: US/Eastern Elev: 157 ft

Show me the last for .
Show Coded

Time T Td Feel RH Dir Speed Gust Alt SLP Vis Weather Sky Remarks
2017-10-19 05:56 49 45 - 86 - - - - - 10 CLR None
2017-10-19 04:56 50 45 48 82 240° 5 - 30.28 30.29 10 CLR None
2017-10-19 03:56 51 46 - 82 220° 6 - 30.28 30.29 10 CLR None
2017-10-19 02:56 52 46 - 80 220° 5 - 30.29 30.30 10 CLR None
2017-10-19 01:56 53 47 - 79 210° 6 - 30.30 30.31 10 CLR 6-hr Min Temp (2am): 52.0°F
6-hr Max Temp (2am): 62.1°F
2017-10-19 00:56 53 48 - 82 230° 7 - 30.30 30.32 10 CLR 24-hr Min Temp (1am): 42.1°F
24-hr Max Temp (1am): 71.1°F
2017-10-18 23:56 54 47 - 77 220° 6 - 30.31 30.32 10 CLR None
2017-10-18 22:56 55 47 - 74 220° 7 - 30.32 30.33 10 CLR None
2017-10-18 21:56 57 48 - 71 210° 6 - 30.32 30.34 10 CLR None
2017-10-18 20:56 59 49 - 69 210° 5 - 30.31 30.33 10 CLR None
2017-10-18 19:56 60 50 - 69 200° 7 - 30.30 30.32 10 CLR 6-hr Min Temp (8pm): 59.0°F
6-hr Max Temp (8pm): 71.1°F
2017-10-18 18:56 61 51 - 69 160° 5 - 30.29 30.31 10 CLR None
2017-10-18 17:56 64 50 - 60 150° 5 - 30.28 30.30 10 CLR None
2017-10-18 16:56 67 49 - 52 160° 6 - 30.28 30.30 10 CLR None
2017-10-18 15:56 71 47 75 42 240° 6 - 30.29 30.30 10 CLR None
2017-10-18 14:56 71 47 75 42 260° 7 - 30.30 30.31 10 CLR None
2017-10-18 13:56 71 47 75 42 270° 5 - 30.31 30.32 10 CLR 6-hr Min Temp (2pm): 44.1°F
6-hr Max Temp (2pm): 71.1°F
2017-10-18 12:56 69 45 - 41 - Calm - 30.33 30.34 10 CLR None
2017-10-18 11:56 66 44 - 44 320° 6 - 30.35 30.36 10 CLR None
2017-10-18 10:56 61 44 - 53 260° 8 - 30.34 30.36 10 CLR None
2017-10-18 09:56 56 43 - 61 270° 8 - 30.35 30.36 10 CLR None
2017-10-18 08:56 49 41 45 73 250° 8 - 30.35 30.37 10 CLR None
2017-10-18 07:56 44 39 40 82 240° 7 - 30.35 30.36 10 CLR 6-hr Min Temp (8am): 42.1°F
6-hr Max Temp (8am): 44.1°F

Support USWX by starting your Amazon purchase here.